New Boston, MI (48164)

6:21 AM EDT on July 26, 2016 (GMT -0400)
Timber Creek | | Change Station

Elev 615 ft 42.13 °N, 83.29 °W | Updated 4 seconds ago

Scattered Clouds
Scattered Clouds
62.1 °F
Feels Like 62.1 °F
N
0.0
Wind Variable Wind from NNW
Gusts 0.0 mph

Today
High -- | Low -- °F
--% Chance of Precip.
Yesterday
High -- | Low -- °F
Precip. -- in
Pressure 30.03 in
Visibility 9.0 miles
Clouds Few 15000 ft
Scattered Clouds 25000 ft
Dew Point 61 °F
Humidity 97%
Rainfall 0.00 in
Snow Depth Not available.
6:21 AM 8:58 PM
Waning Gibbous, 56% visible
METAR KDTW 260953Z 36003KT 9SM FEW150 SCT250 19/16 A3004 RMK AO2 SLP167 T01940156
Pressure 30.03 in
Visibility 9.0 miles
Clouds Few 15000 ft
Scattered Clouds 25000 ft
Dew Point 61 °F
Humidity 97%
Rainfall 0.00 in
Snow Depth Not available.
6:21 AM 8:58 PM
Waning Gibbous, 56% visible
METAR KDTW 260953Z 36003KT 9SM FEW150 SCT250 19/16 A3004 RMK AO2 SLP167 T01940156

10-Day Weather Forecast

Almanac

Astronomy

Jul. 26, 2016 Rise Set
Actual Time
Civil Twilight
Nautical Twilight
Astronomical Twilight
Moon
Length of Visible Light
Length of Day
Tomorrow will be .
, % of the Moon is Illuminated

Today's Extremes

State Highs State Lows

Community

WunderPhotos

Upload Photos

1,927,557 photos uploaded!

WunderBlog® & News

Nearby

Air Quality

  Air Quality AQ Index Pollutant
Not available.

Snow Depth

Station Depth Elevation

Earthquake Activity

City Distance Mag. Time & Date
Minimum magnitude displayed is 2.5.

Coastal Water Temperatures

Place Temperature

Stations

Nearby Weather Stations

Station Location Temp. Windchill Dew Point Humidity Wind Precip. Elev Updated Type
                   

Watches & Warnings

There are currently no watches in effect.